createdAt,value
2018-08-06T00:00:31.561Z,46.85
2018-08-06T00:01:03.187Z,47.48
2018-08-06T00:01:34.782Z,47.15
2018-08-06T00:02:06.382Z,47.42
2018-08-06T00:02:37.957Z,47.19
2018-08-06T00:03:09.586Z,47.12
2018-08-06T00:03:41.192Z,46.69
2018-08-06T00:04:13.352Z,46.92
2018-08-06T00:04:44.930Z,47.17
2018-08-06T00:05:16.532Z,47.15
2018-08-06T00:05:48.110Z,47.14
2018-08-06T00:06:19.701Z,47.24
2018-08-06T00:06:51.304Z,47.28
2018-08-06T00:07:22.909Z,47.50
2018-08-06T00:07:54.511Z,47.57
2018-08-06T00:08:26.145Z,47.33
2018-08-06T00:08:57.722Z,47.11
2018-08-06T00:09:29.317Z,46.93
2018-08-06T00:10:00.917Z,47.04
2018-08-06T00:10:32.499Z,47.22
2018-08-06T00:11:04.084Z,47.18
2018-08-06T00:11:35.675Z,47.44
2018-08-06T00:12:07.259Z,47.41
2018-08-06T00:12:38.857Z,47.47
2018-08-06T00:13:10.483Z,47.49
2018-08-06T00:13:42.067Z,47.62
2018-08-06T00:14:13.660Z,47.39
2018-08-06T00:14:45.247Z,47.56
2018-08-06T00:15:16.833Z,47.65
2018-08-06T00:15:48.459Z,47.95
2018-08-06T00:16:20.047Z,48.06
2018-08-06T00:16:51.631Z,47.67
2018-08-06T00:17:23.214Z,47.79
2018-08-06T00:17:54.798Z,48.00
2018-08-06T00:18:26.392Z,47.99
2018-08-06T00:18:57.979Z,47.75
2018-08-06T00:19:29.567Z,47.70
2018-08-06T00:20:01.142Z,47.68
2018-08-06T00:20:32.775Z,47.87
2018-08-06T00:21:04.373Z,47.51
2018-08-06T00:21:35.973Z,47.41
2018-08-06T00:22:07.578Z,47.75
2018-08-06T00:22:39.167Z,47.44
2018-08-06T00:23:10.761Z,47.53
2018-08-06T00:23:42.351Z,48.01
2018-08-06T00:24:13.935Z,47.86
2018-08-06T00:24:45.533Z,47.72
2018-08-06T00:25:17.114Z,47.87
2018-08-06T00:25:48.729Z,47.63
2018-08-06T00:26:20.322Z,48.05
2018-08-06T00:26:51.916Z,48.21
2018-08-06T00:27:23.528Z,47.90
2018-08-06T00:27:55.115Z,48.02
2018-08-06T00:28:26.701Z,47.88
2018-08-06T00:28:58.291Z,47.76
2018-08-06T00:29:29.930Z,47.99
2018-08-06T00:30:01.510Z,47.64
2018-08-06T00:30:33.141Z,47.98
2018-08-06T00:31:04.746Z,47.95
2018-08-06T00:31:36.348Z,47.75
2018-08-06T00:32:07.953Z,47.73
2018-08-06T00:32:39.557Z,48.10
2018-08-06T00:33:11.197Z,47.72
2018-08-06T00:33:42.783Z,47.66
2018-08-06T00:34:14.377Z,47.48
2018-08-06T00:34:45.953Z,47.86
2018-08-06T00:35:17.540Z,47.72
2018-08-06T00:35:49.127Z,47.72
2018-08-06T00:36:20.759Z,47.87
2018-08-06T00:36:52.343Z,47.73
2018-08-06T00:37:23.928Z,47.91
2018-08-06T00:37:55.519Z,48.04
2018-08-06T00:38:27.103Z,48.10
2018-08-06T00:38:58.688Z,48.01
2018-08-06T00:39:30.284Z,48.21
2018-08-06T00:40:01.877Z,48.12
2018-08-06T00:40:33.472Z,48.48
2018-08-06T00:41:05.049Z,48.02
2018-08-06T00:41:36.679Z,48.59
2018-08-06T00:42:08.272Z,48.08
2018-08-06T00:42:39.859Z,48.47
2018-08-06T00:43:11.444Z,48.49
2018-08-06T00:43:43.029Z,47.85
2018-08-06T00:44:14.675Z,48.08
2018-08-06T00:44:46.263Z,48.06
2018-08-06T00:45:17.903Z,48.12
2018-08-06T00:45:49.469Z,47.93
2018-08-06T00:46:21.055Z,48.07
2018-08-06T00:46:52.635Z,48.27
2018-08-06T00:47:24.238Z,48.18
2018-08-06T00:47:55.841Z,48.12
2018-08-06T00:48:27.427Z,48.18
2018-08-06T00:48:59.055Z,48.14
2018-08-06T00:49:30.653Z,48.31
2018-08-06T00:50:02.225Z,48.70
2018-08-06T00:50:33.825Z,48.29
2018-08-06T00:51:05.406Z,48.10
2018-08-06T00:51:36.991Z,48.63
2018-08-06T00:52:08.583Z,48.36
2018-08-06T00:52:40.195Z,48.00
2018-08-06T00:53:11.824Z,48.57
2018-08-06T00:53:43.410Z,48.33
2018-08-06T00:54:15.040Z,48.14
2018-08-06T00:54:46.637Z,48.53
2018-08-06T00:55:18.237Z,48.40
2018-08-06T00:55:49.827Z,47.98
2018-08-06T00:56:21.425Z,48.19
2018-08-06T00:56:53.042Z,48.22
2018-08-06T00:57:24.631Z,48.35
2018-08-06T00:57:56.265Z,48.59
2018-08-06T00:58:27.839Z,48.18
2018-08-06T00:58:59.427Z,48.32
2018-08-06T00:59:31.025Z,48.22
2018-08-06T01:00:02.611Z,48.63
2018-08-06T01:00:34.204Z,48.50
2018-08-06T01:01:05.801Z,48.60
2018-08-06T01:01:37.405Z,48.63
2018-08-06T01:02:08.982Z,48.52
2018-08-06T01:02:40.581Z,48.53
2018-08-06T01:03:12.214Z,48.48
2018-08-06T01:03:43.847Z,48.67
2018-08-06T01:04:15.436Z,48.46
2018-08-06T01:04:47.038Z,48.61
2018-08-06T01:05:18.622Z,48.58
2018-08-06T01:05:50.197Z,48.49
2018-08-06T01:06:21.787Z,48.58
2018-08-06T01:06:53.362Z,48.56
2018-08-06T01:07:24.947Z,48.49
2018-08-06T01:07:56.574Z,49.18
2018-08-06T01:08:28.161Z,48.89
2018-08-06T01:08:59.744Z,48.88
2018-08-06T01:09:31.341Z,49.30
2018-08-06T01:10:02.917Z,48.59
2018-08-06T01:10:34.523Z,48.67
2018-08-06T01:11:06.157Z,49.14
2018-08-06T01:11:37.747Z,48.91
2018-08-06T01:12:09.322Z,49.17
2018-08-06T01:12:40.894Z,48.91
2018-08-06T01:13:12.493Z,48.74
2018-08-06T01:13:44.119Z,48.58
2018-08-06T01:14:15.708Z,48.95
2018-08-06T01:14:47.305Z,48.83
2018-08-06T01:15:18.900Z,48.61
2018-08-06T01:15:50.509Z,48.70
2018-08-06T01:16:22.138Z,48.55
2018-08-06T01:16:53.710Z,48.81
2018-08-06T01:17:25.307Z,48.80
2018-08-06T01:17:56.910Z,48.67
2018-08-06T01:18:28.514Z,48.64
2018-08-06T01:19:00.144Z,48.82
2018-08-06T01:19:31.741Z,48.47
2018-08-06T01:20:03.309Z,49.00
2018-08-06T01:20:34.929Z,48.53
2018-08-06T01:21:06.515Z,48.30
2018-08-06T01:21:38.100Z,48.45
2018-08-06T01:22:09.697Z,48.33
2018-08-06T01:22:41.293Z,48.41
2018-08-06T01:23:12.883Z,48.25
2018-08-06T01:23:44.517Z,48.39
2018-08-06T01:24:16.117Z,48.14
2018-08-06T01:24:47.717Z,48.59
2018-08-06T01:25:19.348Z,48.17
2018-08-06T01:25:50.934Z,48.30
2018-08-06T01:26:22.533Z,48.25
2018-08-06T01:26:54.124Z,47.71
2018-08-06T01:27:25.731Z,47.91
2018-08-06T01:27:57.360Z,48.22
2018-08-06T01:28:28.961Z,48.55
2018-08-06T01:29:00.547Z,48.44
2018-08-06T01:29:32.145Z,48.60
2018-08-06T01:30:03.741Z,48.61
2018-08-06T01:30:35.331Z,48.66
2018-08-06T01:31:06.951Z,48.75
2018-08-06T01:31:38.547Z,48.81
2018-08-06T01:32:10.137Z,48.88
2018-08-06T01:32:41.733Z,49.03
2018-08-06T01:33:13.375Z,49.17
2018-08-06T01:33:44.967Z,49.12
2018-08-06T01:34:16.555Z,48.80
2018-08-06T01:34:48.125Z,48.75
2018-08-06T01:35:19.705Z,48.59
2018-08-06T01:35:51.306Z,48.60
2018-08-06T01:36:22.882Z,48.79
2018-08-06T01:36:54.467Z,48.36
2018-08-06T01:37:26.061Z,48.56
2018-08-06T01:37:57.686Z,48.69
2018-08-06T01:38:29.280Z,48.98
2018-08-06T01:39:00.889Z,48.95
2018-08-06T01:39:32.479Z,49.26
2018-08-06T01:40:04.081Z,49.31
2018-08-06T01:40:35.672Z,49.26
2018-08-06T01:41:07.259Z,49.58
2018-08-06T01:41:38.844Z,48.83
2018-08-06T01:42:10.436Z,48.82
2018-08-06T01:42:42.027Z,49.31
2018-08-06T01:43:13.645Z,49.33
2018-08-06T01:43:45.249Z,49.00
2018-08-06T01:44:16.879Z,49.37
2018-08-06T01:44:48.467Z,49.24
2018-08-06T01:45:20.056Z,49.26
2018-08-06T01:45:51.720Z,49.44
2018-08-06T01:46:23.317Z,49.11
2018-08-06T01:46:54.915Z,48.72
2018-08-06T01:47:26.521Z,49.17
2018-08-06T01:47:58.136Z,48.84
2018-08-06T01:48:29.722Z,49.20
2018-08-06T01:49:01.323Z,48.72
2018-08-06T01:49:32.960Z,48.60
2018-08-06T01:50:04.559Z,48.58
2018-08-06T01:50:36.148Z,48.82
2018-08-06T01:51:07.741Z,48.62
2018-08-06T01:51:39.341Z,48.83
2018-08-06T01:52:10.927Z,48.85
2018-08-06T01:52:42.515Z,49.43
2018-08-06T01:53:14.099Z,49.09
2018-08-06T01:53:45.673Z,49.13
2018-08-06T01:54:17.269Z,49.14
2018-08-06T01:54:48.869Z,49.39
2018-08-06T01:55:20.459Z,49.72
2018-08-06T01:55:52.053Z,49.94
2018-08-06T01:56:23.649Z,49.66
2018-08-06T01:56:55.275Z,49.79
2018-08-06T01:57:26.856Z,49.37
2018-08-06T01:57:58.452Z,49.77
2018-08-06T01:58:30.041Z,49.69
2018-08-06T01:59:01.631Z,49.66
2018-08-06T01:59:33.212Z,49.57
2018-08-06T02:00:04.810Z,49.65
2018-08-06T02:00:36.395Z,49.85
2018-08-06T02:01:07.989Z,49.71
2018-08-06T02:01:39.575Z,50.01
2018-08-06T02:02:11.149Z,49.63
2018-08-06T02:02:42.735Z,50.10
2018-08-06T02:03:14.323Z,50.37
2018-08-06T02:03:45.916Z,50.29
2018-08-06T02:04:17.503Z,50.44
2018-08-06T02:04:49.091Z,50.32
2018-08-06T02:05:20.679Z,50.35
2018-08-06T02:05:52.268Z,50.17
2018-08-06T02:06:23.864Z,49.99
2018-08-06T02:06:55.450Z,50.20
2018-08-06T02:07:27.113Z,50.23
2018-08-06T02:07:58.698Z,50.23
2018-08-06T02:08:30.283Z,50.33
2018-08-06T02:09:01.882Z,50.40
2018-08-06T02:09:33.457Z,50.33
2018-08-06T02:10:05.043Z,50.28
2018-08-06T02:10:36.641Z,50.56
2018-08-06T02:11:08.230Z,50.32
2018-08-06T02:11:39.865Z,50.53
2018-08-06T02:12:11.448Z,50.51
2018-08-06T02:12:43.060Z,50.40
2018-08-06T02:13:14.641Z,50.56
2018-08-06T02:13:46.218Z,50.26
2018-08-06T02:14:17.817Z,50.54
2018-08-06T02:14:49.406Z,49.89
2018-08-06T02:15:21.015Z,49.99
2018-08-06T02:15:52.616Z,50.19
2018-08-06T02:16:24.247Z,50.26
2018-08-06T02:16:55.839Z,50.30
2018-08-06T02:17:27.437Z,50.03
2018-08-06T02:17:59.022Z,50.25
2018-08-06T02:18:30.606Z,50.43
2018-08-06T02:19:02.190Z,50.66
2018-08-06T02:19:33.775Z,50.44
2018-08-06T02:20:05.346Z,50.34
2018-08-06T02:20:36.924Z,50.03
2018-08-06T02:21:08.520Z,50.11
2018-08-06T02:21:40.147Z,50.01
2018-08-06T02:22:11.743Z,50.03
2018-08-06T02:22:43.345Z,50.22
2018-08-06T02:23:14.932Z,50.23
2018-08-06T02:23:46.519Z,50.35
2018-08-06T02:24:18.147Z,50.27
2018-08-06T02:24:49.732Z,50.08
2018-08-06T02:25:21.334Z,49.97
2018-08-06T02:25:52.909Z,49.67
2018-08-06T02:26:24.509Z,49.59
2018-08-06T02:26:56.114Z,49.49
2018-08-06T02:27:27.709Z,49.70
2018-08-06T02:27:59.301Z,49.54
2018-08-06T02:28:30.895Z,49.71
2018-08-06T02:29:02.473Z,49.80
2018-08-06T02:29:34.076Z,49.50
2018-08-06T02:30:05.669Z,49.62
2018-08-06T02:30:37.255Z,49.63
2018-08-06T02:31:08.839Z,49.58
2018-08-06T02:31:40.442Z,49.40
2018-08-06T02:32:12.077Z,49.45
2018-08-06T02:32:43.689Z,49.52
2018-08-06T02:33:15.276Z,49.37
2018-08-06T02:33:46.855Z,49.63
2018-08-06T02:34:18.439Z,49.85
2018-08-06T02:34:50.045Z,50.16
2018-08-06T02:35:21.644Z,49.86
2018-08-06T02:35:53.214Z,50.21
2018-08-06T02:36:24.844Z,50.25
2018-08-06T02:36:56.441Z,50.53
2018-08-06T02:37:28.041Z,50.35
2018-08-06T02:37:59.641Z,50.41
2018-08-06T02:38:31.228Z,50.55
2018-08-06T02:39:02.815Z,50.70
2018-08-06T02:39:34.418Z,50.69
2018-08-06T02:40:06.048Z,50.31
2018-08-06T02:40:37.649Z,50.33
2018-08-06T02:41:09.245Z,50.44
2018-08-06T02:41:40.850Z,50.21
2018-08-06T02:42:12.498Z,50.55
2018-08-06T02:42:44.097Z,50.54
2018-08-06T02:43:15.697Z,50.14
2018-08-06T02:43:47.297Z,50.79
2018-08-06T02:44:18.891Z,50.23
2018-08-06T02:44:50.476Z,49.97
2018-08-06T02:45:22.064Z,49.79
2018-08-06T02:45:53.666Z,49.90
2018-08-06T02:46:25.251Z,50.05
2018-08-06T02:46:56.836Z,49.86
2018-08-06T02:47:28.454Z,49.95
2018-08-06T02:48:00.042Z,49.96
2018-08-06T02:48:31.641Z,50.38
2018-08-06T02:49:03.227Z,50.03
2018-08-06T02:49:34.831Z,50.13
2018-08-06T02:50:06.432Z,50.08
2018-08-06T02:50:38.042Z,50.10
2018-08-06T02:51:09.634Z,50.54
2018-08-06T02:51:41.223Z,50.56
2018-08-06T02:52:12.807Z,50.54
2018-08-06T02:52:44.440Z,50.83
2018-08-06T02:53:16.046Z,51.07
2018-08-06T02:53:47.652Z,50.52
2018-08-06T02:54:19.261Z,50.37
2018-08-06T02:54:51.097Z,50.08
2018-08-06T02:55:22.683Z,50.65
2018-08-06T02:55:54.274Z,50.68
2018-08-06T02:56:25.868Z,50.76
2018-08-06T02:56:57.502Z,50.90
2018-08-06T02:57:29.101Z,50.56
2018-08-06T02:58:00.713Z,50.30
2018-08-06T02:58:32.344Z,50.25
2018-08-06T02:59:03.946Z,50.06
2018-08-06T02:59:35.576Z,50.05
2018-08-06T03:00:07.188Z,50.10
2018-08-06T03:00:38.795Z,49.80
2018-08-06T03:01:10.397Z,49.99
2018-08-06T03:01:41.993Z,49.92
2018-08-06T03:02:13.573Z,50.13
2018-08-06T03:02:45.160Z,50.05
2018-08-06T03:03:16.764Z,49.61
2018-08-06T03:03:48.370Z,50.41
2018-08-06T03:04:20.059Z,50.25
2018-08-06T03:04:51.643Z,50.57
2018-08-06T03:05:23.217Z,50.38
2018-08-06T03:05:54.813Z,50.54
2018-08-06T03:06:26.403Z,50.51
2018-08-06T03:06:57.985Z,50.16
2018-08-06T03:07:29.576Z,50.21
2018-08-06T03:08:01.177Z,50.96
2018-08-06T03:08:32.771Z,50.17
2018-08-06T03:09:04.359Z,50.27
2018-08-06T03:09:35.998Z,50.47
2018-08-06T03:10:07.606Z,49.86
2018-08-06T03:10:39.209Z,50.82
2018-08-06T03:11:10.799Z,50.13
2018-08-06T03:11:42.402Z,50.26
2018-08-06T03:12:13.994Z,50.52
2018-08-06T03:12:45.583Z,50.28
2018-08-06T03:13:17.167Z,49.96
2018-08-06T03:13:48.770Z,49.93
2018-08-06T03:14:20.359Z,49.98
2018-08-06T03:14:52.018Z,50.36
2018-08-06T03:15:23.622Z,49.54
2018-08-06T03:15:55.201Z,49.95
2018-08-06T03:16:26.775Z,49.97
2018-08-06T03:16:58.418Z,50.00
2018-08-06T03:17:29.989Z,50.11
2018-08-06T03:18:01.575Z,50.00
2018-08-06T03:18:33.159Z,49.99
2018-08-06T03:19:04.760Z,50.07
2018-08-06T03:19:36.352Z,50.83
2018-08-06T03:20:07.979Z,50.87
2018-08-06T03:20:39.573Z,50.24
2018-08-06T03:21:11.184Z,50.69
2018-08-06T03:21:42.775Z,50.83
2018-08-06T03:22:14.369Z,51.04
2018-08-06T03:22:45.965Z,50.52
2018-08-06T03:23:17.551Z,50.47
2018-08-06T03:23:49.136Z,50.43
2018-08-06T03:24:20.723Z,50.48
2018-08-06T03:24:52.325Z,50.42
2018-08-06T03:25:23.952Z,50.39
2018-08-06T03:25:55.529Z,50.66
2018-08-06T03:26:27.116Z,50.48
2018-08-06T03:26:58.690Z,50.50
2018-08-06T03:27:30.275Z,50.84
2018-08-06T03:28:01.878Z,51.30
2018-08-06T03:28:33.643Z,50.72
2018-08-06T03:29:05.234Z,50.70
2018-08-06T03:29:36.870Z,50.86
2018-08-06T03:30:08.431Z,51.11
2018-08-06T03:30:40.067Z,50.88
2018-08-06T03:31:11.655Z,51.27
2018-08-06T03:31:43.243Z,50.97
2018-08-06T03:32:14.836Z,50.71
2018-08-06T03:32:46.418Z,50.52
2018-08-06T03:33:18.017Z,51.10
2018-08-06T03:33:49.607Z,50.51
2018-08-06T03:34:21.193Z,50.66
2018-08-06T03:34:52.775Z,50.58
2018-08-06T03:35:24.407Z,51.28
2018-08-06T03:35:56.006Z,51.02
2018-08-06T03:36:27.596Z,50.66
2018-08-06T03:36:59.180Z,50.47
2018-08-06T03:37:30.777Z,50.82
2018-08-06T03:38:02.353Z,50.41
2018-08-06T03:38:33.962Z,50.84
2018-08-06T03:39:05.546Z,50.83
2018-08-06T03:39:37.131Z,50.98
2018-08-06T03:40:08.754Z,50.75
2018-08-06T03:40:40.389Z,50.42
2018-08-06T03:41:11.980Z,50.64
2018-08-06T03:41:43.567Z,50.41
2018-08-06T03:42:15.151Z,51.08
2018-08-06T03:42:46.755Z,50.52
2018-08-06T03:43:18.366Z,50.69
2018-08-06T03:43:49.965Z,50.86
2018-08-06T03:44:21.565Z,50.76
2018-08-06T03:44:53.161Z,50.80
2018-08-06T03:45:24.782Z,50.81
2018-08-06T03:45:56.381Z,50.99
2018-08-06T03:46:27.963Z,51.09
2018-08-06T03:46:59.569Z,50.70
2018-08-06T03:47:31.169Z,50.65
2018-08-06T03:48:02.755Z,50.98
2018-08-06T03:48:34.351Z,50.62
2018-08-06T03:49:05.970Z,50.84
2018-08-06T03:49:37.560Z,50.64
2018-08-06T03:50:09.154Z,50.17
2018-08-06T03:50:40.801Z,50.06
2018-08-06T03:51:12.377Z,50.65
2018-08-06T03:51:44.009Z,51.87
2018-08-06T03:52:15.612Z,52.95
2018-08-06T03:52:47.238Z,53.80
2018-08-06T03:53:18.814Z,54.66
2018-08-06T03:53:50.385Z,55.13
2018-08-06T03:54:21.971Z,54.38
2018-08-06T03:54:53.560Z,53.71
2018-08-06T03:55:25.201Z,53.00
2018-08-06T03:55:56.811Z,52.92
2018-08-06T03:56:28.446Z,52.33
2018-08-06T03:57:00.072Z,51.86
2018-08-06T03:57:31.664Z,51.67
2018-08-06T03:58:03.261Z,51.54
2018-08-06T03:58:34.861Z,51.39
2018-08-06T03:59:06.447Z,51.37
2018-08-06T03:59:38.051Z,51.58
2018-08-06T04:00:09.649Z,51.17
2018-08-06T04:00:41.239Z,51.46
2018-08-06T04:01:12.831Z,51.88
2018-08-06T04:01:44.415Z,51.65
2018-08-06T04:02:16.065Z,51.33
2018-08-06T04:02:47.649Z,51.30
2018-08-06T04:03:19.251Z,51.60
2018-08-06T04:03:50.839Z,51.47
2018-08-06T04:04:22.437Z,51.63
2018-08-06T04:04:54.023Z,51.31
2018-08-06T04:05:25.625Z,51.52
2018-08-06T04:05:57.210Z,51.80
2018-08-06T04:06:28.844Z,51.00
2018-08-06T04:07:00.431Z,51.39
2018-08-06T04:07:32.029Z,50.82
2018-08-06T04:08:03.682Z,51.31
2018-08-06T04:08:35.276Z,51.52
2018-08-06T04:09:06.864Z,51.27
2018-08-06T04:09:38.467Z,51.69
2018-08-06T04:10:10.056Z,51.59
2018-08-06T04:10:41.635Z,51.47
2018-08-06T04:11:13.209Z,51.43
2018-08-06T04:11:44.781Z,51.07
2018-08-06T04:12:16.379Z,51.25
2018-08-06T04:12:47.968Z,51.49
2018-08-06T04:13:19.570Z,51.84
2018-08-06T04:13:51.173Z,51.55
2018-08-06T04:14:22.764Z,51.27
2018-08-06T04:14:54.355Z,51.58
2018-08-06T04:15:25.944Z,51.62
2018-08-06T04:15:57.541Z,51.36
2018-08-06T04:16:29.130Z,51.76
2018-08-06T04:17:00.716Z,51.65
2018-08-06T04:17:32.339Z,51.82
2018-08-06T04:18:03.945Z,52.36
2018-08-06T04:18:35.598Z,51.87
2018-08-06T04:19:07.184Z,51.95
2018-08-06T04:19:38.830Z,51.51
2018-08-06T04:20:10.494Z,51.51
2018-08-06T04:20:42.084Z,51.25
2018-08-06T04:21:13.667Z,51.32
2018-08-06T04:21:45.266Z,51.36
2018-08-06T04:22:16.861Z,51.71
2018-08-06T04:22:48.465Z,51.33
2018-08-06T04:23:20.052Z,51.22
2018-08-06T04:23:51.680Z,51.19
2018-08-06T04:24:23.263Z,51.19
2018-08-06T04:24:54.862Z,51.26
2018-08-06T04:25:26.506Z,51.25
2018-08-06T04:25:58.090Z,51.51
2018-08-06T04:26:29.689Z,51.45
2018-08-06T04:27:01.275Z,51.55
2018-08-06T04:27:32.867Z,51.63
2018-08-06T04:28:04.452Z,51.15
2018-08-06T04:28:36.036Z,51.67
2018-08-06T04:29:07.637Z,51.42
2018-08-06T04:29:39.233Z,51.43
2018-08-06T04:30:10.874Z,51.46
2018-08-06T04:30:42.469Z,51.52
2018-08-06T04:31:14.048Z,51.33
2018-08-06T04:31:45.621Z,51.83
2018-08-06T04:32:17.203Z,51.60
2018-08-06T04:32:48.822Z,51.65
2018-08-06T04:33:20.415Z,51.55
2018-08-06T04:33:52.034Z,51.96
2018-08-06T04:34:23.628Z,51.58
2018-08-06T04:34:55.212Z,51.61
2018-08-06T04:35:26.842Z,51.69
2018-08-06T04:35:58.461Z,51.86
2018-08-06T04:36:30.054Z,51.91
2018-08-06T04:37:01.653Z,52.10
2018-08-06T04:37:33.251Z,51.93
2018-08-06T04:38:04.846Z,52.09
2018-08-06T04:38:36.457Z,51.83
2018-08-06T04:39:08.027Z,52.11
2018-08-06T04:39:39.619Z,51.60
2018-08-06T04:40:11.189Z,51.76
2018-08-06T04:40:42.765Z,52.05
2018-08-06T04:41:14.392Z,51.55
2018-08-06T04:41:45.979Z,51.69
2018-08-06T04:42:17.567Z,52.21
2018-08-06T04:42:49.155Z,52.15
2018-08-06T04:43:20.739Z,52.66
2018-08-06T04:43:52.377Z,52.83
2018-08-06T04:44:23.977Z,53.21
2018-08-06T04:44:55.618Z,52.86
2018-08-06T04:45:27.221Z,53.06
2018-08-06T04:45:58.859Z,52.91
2018-08-06T04:46:30.428Z,52.90
2018-08-06T04:47:02.030Z,52.53
2018-08-06T04:47:33.615Z,52.30
2018-08-06T04:48:05.199Z,52.24
2018-08-06T04:48:36.803Z,52.94
2018-08-06T04:49:08.386Z,53.22
2018-08-06T04:49:40.013Z,52.65
2018-08-06T04:50:11.603Z,52.53
2018-08-06T04:50:43.177Z,52.79
2018-08-06T04:51:14.785Z,52.46
2018-08-06T04:51:46.371Z,52.40
2018-08-06T04:52:17.956Z,52.36
2018-08-06T04:52:49.557Z,52.20
2018-08-06T04:53:21.208Z,52.42
2018-08-06T04:53:52.804Z,52.09
2018-08-06T04:54:24.405Z,52.39
2018-08-06T04:54:55.992Z,52.20
2018-08-06T04:55:27.590Z,52.46
2018-08-06T04:55:59.175Z,52.65
2018-08-06T04:56:30.794Z,52.63
2018-08-06T04:57:02.406Z,52.78
2018-08-06T04:57:34.005Z,52.81
2018-08-06T04:58:05.591Z,53.13
2018-08-06T04:58:37.244Z,52.84
2018-08-06T04:59:08.849Z,52.66
2018-08-06T04:59:40.510Z,53.22
2018-08-06T05:00:12.067Z,52.84
2018-08-06T05:00:43.652Z,53.20
2018-08-06T05:01:15.226Z,53.58
2018-08-06T05:01:46.820Z,53.26
2018-08-06T05:02:18.408Z,52.83
2018-08-06T05:02:49.991Z,52.58
2018-08-06T05:03:21.580Z,52.82
2018-08-06T05:03:53.195Z,52.83
2018-08-06T05:04:24.787Z,52.99
2018-08-06T05:04:56.383Z,52.29
2018-08-06T05:05:27.986Z,52.36
2018-08-06T05:05:59.609Z,52.55
2018-08-06T05:06:31.235Z,52.61
2018-08-06T05:07:02.821Z,52.97
2018-08-06T05:07:34.444Z,52.65
2018-08-06T05:08:06.077Z,52.12
2018-08-06T05:08:37.725Z,52.17
2018-08-06T05:09:09.306Z,52.93
2018-08-06T05:09:40.887Z,52.97
2018-08-06T05:10:12.480Z,53.11
2018-08-06T05:10:44.083Z,52.45
2018-08-06T05:11:15.681Z,53.06
2018-08-06T05:11:47.254Z,53.19
2018-08-06T05:12:18.839Z,52.32
2018-08-06T05:12:50.427Z,52.43
2018-08-06T05:13:22.026Z,52.42
2018-08-06T05:13:53.642Z,52.41
2018-08-06T05:14:25.227Z,52.68
2018-08-06T05:14:56.811Z,52.59
2018-08-06T05:15:28.405Z,52.98
2018-08-06T05:16:00.008Z,52.87
2018-08-06T05:16:31.613Z,52.75
2018-08-06T05:17:03.200Z,52.52
2018-08-06T05:17:34.841Z,53.46
2018-08-06T05:18:06.447Z,52.74
2018-08-06T05:18:38.045Z,52.89
2018-08-06T05:19:09.635Z,52.74
2018-08-06T05:19:41.229Z,52.80
2018-08-06T05:20:12.825Z,53.02
2018-08-06T05:20:44.411Z,53.34
2018-08-06T05:21:16.013Z,52.62
2018-08-06T05:21:47.615Z,52.96
2018-08-06T05:22:19.211Z,53.18
2018-08-06T05:22:50.804Z,52.87
2018-08-06T05:23:22.401Z,52.86
2018-08-06T05:23:54.040Z,53.01
2018-08-06T05:24:25.626Z,53.36
2018-08-06T05:24:57.211Z,53.84
2018-08-06T05:25:28.795Z,53.19
2018-08-06T05:26:00.377Z,52.88
2018-08-06T05:26:31.959Z,53.87
2018-08-06T05:27:03.544Z,53.14
2018-08-06T05:27:35.134Z,53.09
2018-08-06T05:28:06.724Z,53.19
2018-08-06T05:28:38.311Z,53.35
2018-08-06T05:29:09.943Z,53.55
2018-08-06T05:29:41.536Z,53.15
2018-08-06T05:30:13.135Z,53.10
2018-08-06T05:30:44.724Z,53.32
2018-08-06T05:31:16.347Z,53.07
2018-08-06T05:31:47.933Z,53.27
2018-08-06T05:32:19.509Z,53.10
2018-08-06T05:32:51.114Z,53.14
2018-08-06T05:33:22.695Z,53.10
2018-08-06T05:33:54.293Z,53.47
2018-08-06T05:34:25.930Z,52.92
2018-08-06T05:34:57.533Z,53.27
2018-08-06T05:35:29.130Z,53.07
2018-08-06T05:36:00.720Z,52.93
2018-08-06T05:36:32.321Z,53.10
2018-08-06T05:37:03.925Z,53.22
2018-08-06T05:37:35.510Z,53.53
2018-08-06T05:38:07.151Z,53.01
2018-08-06T05:38:38.745Z,53.37
2018-08-06T05:39:10.329Z,53.91
2018-08-06T05:39:41.919Z,52.92
2018-08-06T05:40:13.507Z,53.68
2018-08-06T05:40:45.102Z,53.23
2018-08-06T05:41:16.707Z,53.07
2018-08-06T05:41:48.299Z,53.13
2018-08-06T05:42:19.879Z,53.14
2018-08-06T05:42:51.467Z,53.97
2018-08-06T05:43:23.102Z,53.88
2018-08-06T05:43:54.698Z,53.09
2018-08-06T05:44:26.291Z,53.42
2018-08-06T05:44:57.866Z,52.96
2018-08-06T05:45:29.451Z,53.15
2018-08-06T05:46:01.039Z,52.58
2018-08-06T05:46:32.623Z,52.37
2018-08-06T05:47:04.207Z,52.29
2018-08-06T05:47:35.813Z,53.05
2018-08-06T05:48:07.429Z,52.42
2018-08-06T05:48:39.025Z,52.19
2018-08-06T05:49:10.602Z,51.88
2018-08-06T05:49:42.209Z,51.96
2018-08-06T05:50:13.795Z,52.36
2018-08-06T05:50:45.419Z,52.62
2018-08-06T05:51:17.017Z,52.02
2018-08-06T05:51:48.603Z,52.35
2018-08-06T05:52:20.201Z,52.27
2018-08-06T05:52:51.805Z,52.36
2018-08-06T05:53:23.395Z,52.50
2018-08-06T05:53:54.989Z,52.61
2018-08-06T05:54:26.565Z,52.74
2018-08-06T05:54:58.151Z,52.56
2018-08-06T05:55:29.765Z,53.42
2018-08-06T05:56:01.352Z,52.56
2018-08-06T05:56:32.950Z,52.82
2018-08-06T05:57:04.549Z,52.42
2018-08-06T05:57:36.135Z,52.55
2018-08-06T05:58:07.775Z,52.98
2018-08-06T05:58:39.349Z,52.26
2018-08-06T05:59:10.939Z,52.88
2018-08-06T05:59:42.534Z,52.62
2018-08-06T06:00:14.143Z,52.06
2018-08-06T06:00:45.741Z,52.21
2018-08-06T06:01:17.327Z,52.07
2018-08-06T06:01:48.923Z,51.98
2018-08-06T06:02:20.507Z,51.97
2018-08-06T06:02:52.090Z,51.53
2018-08-06T06:03:23.751Z,51.94
2018-08-06T06:03:55.341Z,51.37
2018-08-06T06:04:26.917Z,51.19
2018-08-06T06:04:58.547Z,51.23
2018-08-06T06:05:30.164Z,51.84
2018-08-06T06:06:01.746Z,51.39
2018-08-06T06:06:33.331Z,51.47
2018-08-06T06:07:04.924Z,50.76
2018-08-06T06:07:36.526Z,50.42
2018-08-06T06:08:08.120Z,50.74
2018-08-06T06:08:39.703Z,50.38
2018-08-06T06:09:11.340Z,50.26
2018-08-06T06:09:42.931Z,50.37
2018-08-06T06:10:14.515Z,50.16
2018-08-06T06:10:46.094Z,49.97
2018-08-06T06:11:17.701Z,50.12
2018-08-06T06:11:49.294Z,49.97
2018-08-06T06:12:20.883Z,49.94
2018-08-06T06:12:52.471Z,49.63
2018-08-06T06:13:24.060Z,49.69
2018-08-06T06:13:55.642Z,49.54
2018-08-06T06:14:27.287Z,49.59
2018-08-06T06:14:58.884Z,49.35
2018-08-06T06:15:30.467Z,49.21
2018-08-06T06:16:02.056Z,49.13
2018-08-06T06:16:33.644Z,48.99
2018-08-06T06:17:05.232Z,49.64
2018-08-06T06:17:36.830Z,48.90
2018-08-06T06:18:08.420Z,49.11
2018-08-06T06:18:40.061Z,48.91
2018-08-06T06:19:11.679Z,49.17
2018-08-06T06:19:43.261Z,48.98
2018-08-06T06:20:14.848Z,49.09
2018-08-06T06:20:46.453Z,48.89
2018-08-06T06:21:18.057Z,49.11
2018-08-06T06:21:49.653Z,49.45
2018-08-06T06:22:21.257Z,49.27
2018-08-06T06:22:52.860Z,48.44
2018-08-06T06:23:24.495Z,48.86
2018-08-06T06:23:56.121Z,48.33
2018-08-06T06:24:27.721Z,48.72
2018-08-06T06:24:59.311Z,48.30
2018-08-06T06:25:30.899Z,48.18
2018-08-06T06:26:02.477Z,49.12
2018-08-06T06:26:34.057Z,49.97
2018-08-06T06:27:05.648Z,49.56
2018-08-06T06:27:37.253Z,49.52
2018-08-06T06:28:08.854Z,49.39
2018-08-06T06:28:40.479Z,49.90
2018-08-06T06:29:12.095Z,49.94
2018-08-06T06:29:43.694Z,49.89
2018-08-06T06:30:15.293Z,49.73
2018-08-06T06:30:46.938Z,48.63
2018-08-06T06:31:18.499Z,49.01
2018-08-06T06:31:50.084Z,49.32
2018-08-06T06:32:21.686Z,49.04
2018-08-06T06:32:53.263Z,48.53
2018-08-06T06:33:24.925Z,48.63
2018-08-06T06:33:56.519Z,48.43
2018-08-06T06:34:28.132Z,49.41
2018-08-06T06:34:59.727Z,48.59
2018-08-06T06:35:31.333Z,48.13
2018-08-06T06:36:02.925Z,47.69
2018-08-06T06:36:34.529Z,48.42
2018-08-06T06:37:06.122Z,47.88
2018-08-06T06:37:37.697Z,48.25
2018-08-06T06:38:09.279Z,47.99
2018-08-06T06:38:40.901Z,48.09
2018-08-06T06:39:12.486Z,47.94
2018-08-06T06:39:44.082Z,47.22
2018-08-06T06:40:15.683Z,47.74
2018-08-06T06:40:47.322Z,47.41
2018-08-06T06:41:18.897Z,47.43
2018-08-06T06:41:50.553Z,47.68
2018-08-06T06:42:22.106Z,47.31
2018-08-06T06:42:53.691Z,47.40
2018-08-06T06:44:02.207Z,47.29
2018-08-06T06:44:33.781Z,47.43
2018-08-06T06:45:05.368Z,47.13
2018-08-06T06:45:36.958Z,47.01
2018-08-06T06:46:08.587Z,46.69
2018-08-06T06:46:40.171Z,46.33
2018-08-06T06:47:11.742Z,46.21
2018-08-06T06:47:43.331Z,46.18